createdAt,value
2019-01-21T00:00:42.669Z,0.19
2019-01-21T00:03:14.988Z,0.09
2019-01-21T00:05:47.074Z,0.15
2019-01-21T00:08:19.080Z,0.15
2019-01-21T00:10:51.076Z,0.15
2019-01-21T00:13:23.072Z,0.07
2019-01-21T00:15:55.035Z,0.09
2019-01-21T00:18:27.043Z,0.10
2019-01-21T00:20:59.046Z,-0.04
2019-01-21T00:23:31.052Z,-0.05
2019-01-21T00:26:03.062Z,0.02
2019-01-21T00:28:35.082Z,0.13
2019-01-21T00:31:07.045Z,0.10
2019-01-21T00:33:39.061Z,0.19
2019-01-21T00:36:11.061Z,0.03
2019-01-21T00:38:43.049Z,-0.10
2019-01-21T00:41:15.004Z,0.01
2019-01-21T00:43:47.079Z,-0.04
2019-01-21T00:46:19.191Z,-0.04
2019-01-21T00:48:51.284Z,0.00
2019-01-21T00:51:23.260Z,0.09
2019-01-21T00:53:55.278Z,0.07
2019-01-21T00:56:27.268Z,0.01
2019-01-21T00:58:59.261Z,-0.01
2019-01-21T01:01:31.251Z,0.02
2019-01-21T01:04:03.304Z,0.14
2019-01-21T01:06:35.314Z,0.10
2019-01-21T01:09:07.483Z,0.14
2019-01-21T01:11:39.492Z,0.18
2019-01-21T01:14:11.446Z,0.15
2019-01-21T01:16:43.431Z,0.01
2019-01-21T01:19:15.453Z,-0.04
2019-01-21T01:21:47.454Z,0.01
2019-01-21T01:24:19.429Z,0.05
2019-01-21T01:26:51.404Z,0.02
2019-01-21T01:29:23.402Z,-0.04
2019-01-21T01:31:55.431Z,-0.09
2019-01-21T01:34:27.384Z,0.04
2019-01-21T01:36:59.404Z,0.02
2019-01-21T01:39:31.407Z,0.11
2019-01-21T01:42:03.392Z,-0.02
2019-01-21T01:44:35.366Z,-0.03
2019-01-21T01:47:07.364Z,-0.03
2019-01-21T01:49:39.338Z,-0.10
2019-01-21T01:52:11.328Z,-0.18
2019-01-21T01:54:43.533Z,-0.29
2019-01-21T01:57:15.530Z,-0.22
2019-01-21T01:59:47.502Z,-0.38
2019-01-21T02:02:19.483Z,-0.41
2019-01-21T02:04:51.765Z,-0.38
2019-01-21T02:07:23.831Z,-0.45
2019-01-21T02:09:55.811Z,-0.58
2019-01-21T02:12:27.837Z,-0.59
2019-01-21T02:14:59.796Z,-0.64
2019-01-21T02:17:31.800Z,-0.53
2019-01-21T02:20:05.806Z,-0.55
2019-01-21T02:22:44.139Z,-0.61
2019-01-21T02:25:16.658Z,-0.57
2019-01-21T02:28:22.137Z,-0.52
2019-01-21T02:31:34.507Z,-0.53
2019-01-21T02:34:35.598Z,-0.57
2019-01-21T02:37:49.416Z,-0.59
2019-01-21T02:41:06.309Z,-0.67
2019-01-21T02:44:20.534Z,-0.66
2019-01-21T02:47:01.567Z,-0.69
2019-01-21T02:50:04.811Z,-0.75
2019-01-21T02:53:30.985Z,-0.84
2019-01-21T02:56:46.627Z,-0.89
2019-01-21T03:00:11.687Z,-0.75
2019-01-21T03:03:21.737Z,-0.77
2019-01-21T03:06:34.269Z,-0.98
2019-01-21T03:09:36.721Z,-1.10
2019-01-21T03:12:38.210Z,-0.96
2019-01-21T03:15:47.651Z,-1.10
2019-01-21T03:19:03.111Z,-1.16
2019-01-21T03:22:11.577Z,-1.21
2019-01-21T03:25:31.103Z,-1.33
2019-01-21T03:28:39.486Z,-1.45
2019-01-21T03:31:54.125Z,-1.50
2019-01-21T03:35:04.037Z,-1.56
2019-01-21T03:38:32.938Z,-1.50
2019-01-21T03:41:55.667Z,-1.67
2019-01-21T03:44:47.500Z,-1.75
2019-01-21T03:47:32.494Z,-1.70
2019-01-21T03:50:36.880Z,-1.74
2019-01-21T03:53:40.510Z,-1.83
2019-01-21T03:56:39.636Z,-1.81
2019-01-21T03:59:49.258Z,-1.72
2019-01-21T04:03:03.998Z,-1.86
2019-01-21T04:05:52.543Z,-1.88
2019-01-21T04:08:54.449Z,-1.91
2019-01-21T04:11:55.652Z,-2.00
2019-01-21T04:14:46.599Z,-2.05
2019-01-21T04:17:57.167Z,-2.12
2019-01-21T04:21:16.309Z,-2.08
2019-01-21T04:24:34.442Z,-2.16
2019-01-21T04:27:54.108Z,-2.14
2019-01-21T04:30:55.136Z,-2.25
2019-01-21T04:33:56.019Z,-2.24
2019-01-21T04:37:03.807Z,-2.16
2019-01-21T04:40:01.269Z,-2.23
2019-01-21T04:43:18.036Z,-2.32
2019-01-21T04:46:31.265Z,-2.33
2019-01-21T04:49:16.920Z,-2.52
2019-01-21T04:52:24.934Z,-2.51
2019-01-21T04:55:35.596Z,-2.49
2019-01-21T04:58:45.052Z,-2.58
2019-01-21T05:01:42.601Z,-2.70
2019-01-21T05:04:46.319Z,-2.67
2019-01-21T05:07:31.754Z,-2.73
2019-01-21T05:10:30.101Z,-2.82
2019-01-21T05:13:35.172Z,-2.80
2019-01-21T05:16:46.366Z,-2.83
2019-01-21T05:20:09.427Z,-2.98
2019-01-21T05:23:24.527Z,-2.94
2019-01-21T05:26:22.793Z,-2.94
2019-01-21T05:29:46.326Z,-2.94
2019-01-21T05:33:00.227Z,-2.95
2019-01-21T05:35:54.188Z,-3.04
2019-01-21T05:38:49.721Z,-2.99
2019-01-21T05:42:15.701Z,-3.01
2019-01-21T05:45:24.216Z,-2.93
2019-01-21T05:48:48.901Z,-3.02
2019-01-21T05:52:01.798Z,-3.09
2019-01-21T05:55:11.755Z,-3.09
2019-01-21T05:58:19.877Z,-3.05
2019-01-21T06:01:35.622Z,-3.03
2019-01-21T06:04:33.556Z,-3.13
2019-01-21T06:07:46.415Z,-3.20
2019-01-21T06:10:39.486Z,-3.20
2019-01-21T06:14:04.726Z,-3.24
2019-01-21T06:16:59.548Z,-3.27
2019-01-21T06:20:07.669Z,-3.32
2019-01-21T06:22:52.854Z,-3.27
2019-01-21T06:26:08.664Z,-3.30
2019-01-21T06:29:05.391Z,-3.27
2019-01-21T06:32:03.655Z,-3.37
2019-01-21T06:35:08.783Z,-3.37
2019-01-21T06:38:24.120Z,-3.51
2019-01-21T06:41:33.860Z,-3.62
2019-01-21T06:44:38.449Z,-3.75
2019-01-21T06:47:45.276Z,-3.79
2019-01-21T06:50:57.647Z,-3.76
2019-01-21T06:53:58.579Z,-3.75
2019-01-21T06:57:15.559Z,-3.71
2019-01-21T07:00:09.589Z,-3.68
2019-01-21T07:03:19.180Z,-3.73
2019-01-21T07:06:32.944Z,-3.79
2019-01-21T07:09:18.124Z,-3.82
2019-01-21T07:12:00.233Z,-3.71
2019-01-21T07:15:00.325Z,-3.69
2019-01-21T07:18:17.628Z,-3.66
2019-01-21T07:21:33.339Z,-3.68
2019-01-21T07:24:43.591Z,-3.68
2019-01-21T07:27:54.206Z,-3.72
2019-01-21T07:30:37.812Z,-3.80
2019-01-21T07:33:29.300Z,-3.89
2019-01-21T07:36:51.486Z,-3.80
2019-01-21T07:39:47.723Z,-3.78
2019-01-21T07:43:10.766Z,-3.76
2019-01-21T07:46:04.843Z,-3.75
2019-01-21T07:49:17.532Z,-3.72
2019-01-21T07:52:22.601Z,-3.76
2019-01-21T07:55:23.487Z,-3.63
2019-01-21T07:58:39.151Z,-3.45
2019-01-21T08:01:24.715Z,-3.31
2019-01-21T08:04:29.447Z,-3.10
2019-01-21T08:07:28.385Z,-2.92
2019-01-21T08:10:37.714Z,-2.72
2019-01-21T08:13:50.197Z,-2.69
2019-01-21T08:17:28.459Z,-2.48
2019-01-21T08:20:28.962Z,-2.29
2019-01-21T08:23:48.106Z,-2.42
2019-01-21T08:27:02.191Z,-2.20
2019-01-21T08:29:48.993Z,-2.19
2019-01-21T08:32:52.313Z,-2.15
2019-01-21T08:35:46.113Z,-2.00
2019-01-21T08:38:50.758Z,-2.08
2019-01-21T08:42:04.630Z,-2.33
2019-01-21T08:45:21.888Z,-2.40
2019-01-21T08:48:44.399Z,-2.20
2019-01-21T08:51:58.704Z,-2.45
2019-01-21T08:55:24.980Z,-2.52
2019-01-21T08:58:47.579Z,-2.41
2019-01-21T09:02:00.356Z,-2.39
2019-01-21T09:04:50.739Z,-2.33
2019-01-21T09:08:06.352Z,-2.37
2019-01-21T09:11:28.975Z,-2.41
2019-01-21T09:14:27.767Z,-2.59
2019-01-21T09:17:16.351Z,-2.34
2019-01-21T09:20:25.650Z,-2.16
2019-01-21T09:23:23.129Z,-2.06
2019-01-21T09:26:28.072Z,-1.78
2019-01-21T09:29:27.279Z,-1.61
2019-01-21T09:32:11.568Z,-1.62
2019-01-21T09:35:20.124Z,-1.55
2019-01-21T09:38:19.208Z,-1.20
2019-01-21T09:41:32.291Z,-0.93
2019-01-21T09:44:15.784Z,-0.89
2019-01-21T09:46:47.467Z,-1.01
2019-01-21T09:49:18.443Z,-1.10
2019-01-21T09:52:00.757Z,-0.84
2019-01-21T09:54:35.121Z,-0.77
2019-01-21T09:57:09.281Z,-0.40
2019-01-21T09:59:41.760Z,-0.26
2019-01-21T10:02:14.858Z,-0.26
2019-01-21T10:04:55.844Z,-0.16
2019-01-21T10:08:24.875Z,-0.08
2019-01-21T10:11:16.071Z,-0.30
2019-01-21T10:14:45.076Z,-0.20
2019-01-21T10:17:26.446Z,-0.15
2019-01-21T10:20:32.668Z,0.26
2019-01-21T10:23:50.929Z,0.41
2019-01-21T10:27:01.123Z,0.45
2019-01-21T10:30:14.828Z,0.53
2019-01-21T10:33:23.549Z,0.53
2019-01-21T10:36:51.776Z,0.41
2019-01-21T10:39:40.380Z,0.25
2019-01-21T10:42:39.100Z,0.35
2019-01-21T10:45:49.421Z,0.50
2019-01-21T10:48:50.412Z,0.53
2019-01-21T10:51:52.315Z,0.38
2019-01-21T10:54:55.542Z,0.44
2019-01-21T10:58:03.069Z,0.59
2019-01-21T11:01:26.734Z,0.55
2019-01-21T11:04:22.742Z,0.34
2019-01-21T11:07:16.535Z,0.36
2019-01-21T11:10:26.393Z,0.36
2019-01-21T11:14:01.169Z,0.47
2019-01-21T11:17:06.917Z,0.60
2019-01-21T11:20:04.226Z,0.54
2019-01-21T11:22:59.633Z,0.68
2019-01-21T11:26:12.908Z,0.65
2019-01-21T11:29:11.571Z,0.85
2019-01-21T11:32:30.721Z,0.76
2019-01-21T11:35:41.674Z,0.79
2019-01-21T11:38:38.437Z,0.85
2019-01-21T11:41:37.044Z,0.96
2019-01-21T11:44:47.943Z,1.03
2019-01-21T11:47:58.865Z,1.19
2019-01-21T11:51:09.756Z,1.04
2019-01-21T11:54:20.658Z,0.94
2019-01-21T11:57:31.538Z,0.77
2019-01-21T12:00:11.668Z,1.07
2019-01-21T12:03:23.612Z,1.14
2019-01-21T12:06:01.403Z,1.12
2019-01-21T12:09:12.270Z,1.23
2019-01-21T12:12:09.455Z,1.10
2019-01-21T12:15:20.383Z,1.10
2019-01-21T12:18:16.620Z,1.22
2019-01-21T12:21:27.542Z,1.40
2019-01-21T12:24:38.578Z,1.55
2019-01-21T12:27:32.133Z,1.45
2019-01-21T12:30:43.028Z,1.41
2019-01-21T12:33:53.946Z,1.47
2019-01-21T12:37:04.853Z,1.33
2019-01-21T12:40:15.734Z,1.37
2019-01-21T12:43:26.655Z,1.56
2019-01-21T12:46:37.617Z,1.60
2019-01-21T12:49:48.538Z,1.71
2019-01-21T12:52:38.052Z,1.68
2019-01-21T12:55:48.965Z,1.70
2019-01-21T12:58:59.859Z,1.68
2019-01-21T13:02:10.781Z,1.68
2019-01-21T13:05:21.693Z,1.74
2019-01-21T13:08:19.628Z,1.74
2019-01-21T13:11:30.526Z,1.82
2019-01-21T13:14:41.451Z,1.83
2019-01-21T13:17:52.352Z,1.88
2019-01-21T13:21:03.256Z,1.85
2019-01-21T13:24:14.194Z,1.80
2019-01-21T13:27:08.767Z,1.79
2019-01-21T13:30:03.036Z,1.82
2019-01-21T13:33:13.907Z,1.75
2019-01-21T13:36:30.840Z,1.77
2019-01-21T13:39:29.093Z,1.85
2019-01-21T13:42:09.181Z,1.78
2019-01-21T13:45:15.123Z,1.72
2019-01-21T13:48:23.146Z,1.76
2019-01-21T13:51:13.435Z,1.62
2019-01-21T13:54:22.224Z,1.64
2019-01-21T13:57:48.429Z,1.56
2019-01-21T14:00:40.911Z,1.60
2019-01-21T14:03:53.867Z,1.53
2019-01-21T14:07:28.947Z,1.48
2019-01-21T14:10:42.053Z,1.48
2019-01-21T14:13:32.609Z,1.45
2019-01-21T14:17:01.748Z,1.29
2019-01-21T14:20:16.882Z,1.39
2019-01-21T14:23:38.380Z,1.58
2019-01-21T14:27:00.934Z,1.63
2019-01-21T14:30:05.729Z,1.62
2019-01-21T14:33:25.352Z,1.46
2019-01-21T14:36:25.415Z,1.41
2019-01-21T14:39:46.183Z,1.75
2019-01-21T14:42:43.478Z,1.49
2019-01-21T14:45:29.787Z,1.62
2019-01-21T14:48:26.627Z,1.56
2019-01-21T14:51:52.577Z,1.41
2019-01-21T14:54:48.993Z,1.35
2019-01-21T14:57:54.479Z,1.44
2019-01-21T15:01:12.497Z,1.40
2019-01-21T15:04:25.026Z,1.34
2019-01-21T15:07:14.075Z,1.33
2019-01-21T15:10:28.924Z,1.41
2019-01-21T15:13:08.370Z,1.45
2019-01-21T15:16:21.704Z,1.38
2019-01-21T15:19:50.530Z,1.44
2019-01-21T15:22:39.989Z,1.46
2019-01-21T15:25:50.686Z,1.40
2019-01-21T15:29:28.718Z,1.29
2019-01-21T15:32:48.495Z,1.17
2019-01-21T15:36:04.679Z,1.17
2019-01-21T15:39:15.969Z,1.01
2019-01-21T15:42:09.546Z,0.95
2019-01-21T15:45:39.237Z,1.02
2019-01-21T15:48:30.587Z,0.93
2019-01-21T15:51:33.960Z,0.84
2019-01-21T15:54:14.706Z,0.83
2019-01-21T15:57:19.553Z,0.77
2019-01-21T16:00:35.539Z,0.83
2019-01-21T16:03:46.568Z,0.92
2019-01-21T16:07:00.554Z,0.89
2019-01-21T16:09:54.141Z,0.80
2019-01-21T16:12:57.873Z,0.78
2019-01-21T16:15:58.067Z,0.75
2019-01-21T16:18:41.324Z,0.95
2019-01-21T16:22:01.214Z,0.92
2019-01-21T16:25:08.229Z,0.74
2019-01-21T16:28:20.718Z,0.69
2019-01-21T16:30:56.837Z,0.64
2019-01-21T16:34:12.288Z,0.62
2019-01-21T16:37:18.826Z,0.62
2019-01-21T16:41:03.032Z,0.62
2019-01-21T16:43:35.077Z,0.51
2019-01-21T16:46:07.075Z,0.51
2019-01-21T16:48:39.098Z,0.53
2019-01-21T16:51:11.159Z,0.57
2019-01-21T16:53:43.224Z,0.62
2019-01-21T16:56:15.254Z,0.63
2019-01-21T16:58:47.319Z,0.73
2019-01-21T17:01:19.363Z,0.76
2019-01-21T17:03:51.477Z,0.70
2019-01-21T17:06:23.528Z,0.66
2019-01-21T17:08:55.574Z,0.65
2019-01-21T17:11:27.847Z,0.67
2019-01-21T17:13:59.910Z,0.68
2019-01-21T17:16:31.978Z,0.67
2019-01-21T17:19:04.141Z,0.68
2019-01-21T17:21:36.275Z,0.70
2019-01-21T17:24:08.329Z,0.67
2019-01-21T17:26:41.826Z,0.69
2019-01-21T17:29:13.859Z,0.73
2019-01-21T17:31:46.000Z,0.68
2019-01-21T17:34:18.095Z,0.72
2019-01-21T17:36:50.117Z,0.71
2019-01-21T17:39:22.119Z,0.68
2019-01-21T17:41:54.222Z,0.54
2019-01-21T17:44:26.231Z,0.63
2019-01-21T17:46:58.236Z,0.63
2019-01-21T17:49:30.292Z,0.54
2019-01-21T17:52:02.409Z,0.66
2019-01-21T17:54:35.293Z,0.66
2019-01-21T17:57:08.441Z,0.68
2019-01-21T17:59:40.420Z,0.59
2019-01-21T18:02:12.530Z,0.63
2019-01-21T18:04:44.595Z,0.56
2019-01-21T18:07:16.720Z,0.58
2019-01-21T18:09:48.817Z,0.48
2019-01-21T18:12:20.847Z,0.50
2019-01-21T18:14:52.981Z,0.58
2019-01-21T18:17:25.573Z,0.65
2019-01-21T18:19:57.726Z,0.74
2019-01-21T18:22:29.904Z,0.63
2019-01-21T18:25:02.060Z,0.48
2019-01-21T18:27:34.198Z,0.57
2019-01-21T18:30:09.892Z,0.47
2019-01-21T18:32:42.000Z,0.42
2019-01-21T18:35:14.172Z,0.43
2019-01-21T18:37:46.225Z,0.41
2019-01-21T18:40:19.528Z,0.43
2019-01-21T18:42:51.594Z,0.50
2019-01-21T18:45:26.035Z,0.58
2019-01-21T18:47:58.015Z,0.57
2019-01-21T18:50:30.313Z,0.52
2019-01-21T18:53:05.640Z,0.53
2019-01-21T18:55:37.773Z,0.51
2019-01-21T18:58:09.958Z,0.52
2019-01-21T19:00:42.056Z,0.56
2019-01-21T19:03:14.211Z,0.55
2019-01-21T19:05:46.407Z,0.57
2019-01-21T19:08:18.448Z,0.57
2019-01-21T19:10:50.574Z,0.59
2019-01-21T19:13:22.640Z,0.60
2019-01-21T19:15:54.750Z,0.58
2019-01-21T19:18:26.774Z,0.62
2019-01-21T19:20:58.969Z,0.62
2019-01-21T19:23:31.017Z,0.64
2019-01-21T19:26:03.249Z,0.61
2019-01-21T19:28:35.282Z,0.60
2019-01-21T19:31:07.366Z,0.66
2019-01-21T19:33:39.390Z,0.61
2019-01-21T19:36:11.624Z,0.59
2019-01-21T19:38:43.689Z,0.59
2019-01-21T19:41:15.762Z,0.62
2019-01-21T19:43:47.799Z,0.72
2019-01-21T19:46:19.949Z,0.57
2019-01-21T19:48:52.024Z,0.71
2019-01-21T19:51:24.174Z,0.52
2019-01-21T19:53:56.318Z,0.56
2019-01-21T19:56:28.392Z,0.38
2019-01-21T19:59:00.488Z,0.38
2019-01-21T20:01:32.714Z,0.34
2019-01-21T20:04:04.837Z,0.35
2019-01-21T20:06:36.983Z,0.41
2019-01-21T20:09:09.069Z,0.47
2019-01-21T20:11:41.247Z,0.43
2019-01-21T20:14:13.354Z,0.44
2019-01-21T20:16:45.476Z,0.48
2019-01-21T20:19:17.585Z,0.52
2019-01-21T20:21:49.739Z,0.53
2019-01-21T20:24:21.773Z,0.55
2019-01-21T20:26:53.966Z,0.51
2019-01-21T20:29:26.035Z,0.51
2019-01-21T20:31:58.245Z,0.55
2019-01-21T20:34:30.321Z,0.48
2019-01-21T20:37:02.460Z,0.40
2019-01-21T20:39:34.553Z,0.34
2019-01-21T20:42:08.301Z,0.32
2019-01-21T20:44:40.374Z,0.36
2019-01-21T20:47:12.535Z,0.30
2019-01-21T20:49:44.622Z,0.27
2019-01-21T20:52:16.678Z,0.27
2019-01-21T20:54:48.776Z,0.28
2019-01-21T20:57:20.911Z,0.28
2019-01-21T20:59:52.993Z,0.27
2019-01-21T21:02:25.052Z,0.31
2019-01-21T21:04:57.105Z,0.35
2019-01-21T21:07:29.080Z,0.31
2019-01-21T21:10:01.168Z,0.26
2019-01-21T21:12:33.202Z,0.27
2019-01-21T21:15:09.199Z,0.17
2019-01-21T21:17:41.206Z,0.17
2019-01-21T21:20:13.396Z,0.15
2019-01-21T21:22:45.477Z,0.21
2019-01-21T21:25:17.971Z,0.21
2019-01-21T21:27:49.964Z,0.21
2019-01-21T21:30:24.462Z,0.24
2019-01-21T21:32:56.860Z,0.22
2019-01-21T21:35:29.135Z,0.25
2019-01-21T21:38:01.172Z,0.24
2019-01-21T21:40:33.252Z,0.23
2019-01-21T21:43:05.211Z,0.25
2019-01-21T21:45:37.548Z,0.25
2019-01-21T21:48:09.516Z,0.27
2019-01-21T21:50:41.555Z,0.25
2019-01-21T21:53:13.517Z,0.22
2019-01-21T21:55:45.471Z,0.19
2019-01-21T21:58:17.425Z,0.22
2019-01-21T22:00:49.411Z,0.23
2019-01-21T22:03:21.336Z,0.30
2019-01-21T22:05:53.287Z,0.19
2019-01-21T22:08:25.221Z,0.17
2019-01-21T22:10:57.268Z,0.15
2019-01-21T22:13:29.199Z,0.09
2019-01-21T22:16:01.184Z,0.08
2019-01-21T22:18:33.851Z,0.16
2019-01-21T22:21:05.821Z,0.16
2019-01-21T22:23:37.767Z,0.05
2019-01-21T22:26:09.754Z,0.01
2019-01-21T22:28:41.766Z,-0.06
2019-01-21T22:31:13.826Z,-0.08
2019-01-21T22:33:45.844Z,-0.03
2019-01-21T22:36:17.893Z,-0.13
2019-01-21T22:38:49.944Z,-0.13
2019-01-21T22:41:21.963Z,-0.14
2019-01-21T22:43:54.000Z,-0.17
2019-01-21T22:46:25.976Z,-0.15
2019-01-21T22:48:58.020Z,-0.19
2019-01-21T22:51:29.993Z,-0.24
2019-01-21T22:54:02.033Z,-0.31
2019-01-21T22:56:34.020Z,-0.37
2019-01-21T22:59:06.053Z,-0.37
2019-01-21T23:01:38.348Z,-0.43
2019-01-21T23:04:10.405Z,-0.50
2019-01-21T23:06:42.400Z,-0.51
2019-01-21T23:09:14.451Z,-0.52
2019-01-21T23:11:50.949Z,-0.49
2019-01-21T23:14:22.944Z,-0.44
2019-01-21T23:16:54.922Z,-0.50
2019-01-21T23:19:26.919Z,-0.60
2019-01-21T23:21:58.900Z,-0.61
2019-01-21T23:24:30.970Z,-0.57
2019-01-21T23:27:02.958Z,-0.62
2019-01-21T23:29:34.970Z,-0.70
2019-01-21T23:32:06.962Z,-0.74
2019-01-21T23:34:38.998Z,-0.70
2019-01-21T23:37:10.981Z,-0.81
2019-01-21T23:39:42.993Z,-0.92
2019-01-21T23:42:15.002Z,-0.98
2019-01-21T23:44:47.320Z,-0.99
2019-01-21T23:47:19.320Z,-0.96
2019-01-21T23:49:51.345Z,-1.00
2019-01-21T23:52:23.324Z,-1.03
2019-01-21T23:54:55.345Z,-1.08
2019-01-21T23:57:27.303Z,-1.12
2019-01-21T23:59:59.324Z,-1.11
